Aeroporto :
LOGIN :

Iscrizione | Disclaimer

   EN    FR    IT 

 










Sommario :    VFR   VFR Marginale   IFR   IFR Intensivo   IFR Molto Intensivo
Visibilità : 
Base nubi : 
>= 8 km
>= 3000ft
5 / 8 km
1000 / 3000 ft
1500m / 5 km
500 / 1000 ft
800 / 1500m
200 / 500 ft
< 800m
< 200 ft
Simboli :   Temporali  Nebbia  Neve Forte  Precipitazioni Forti  Vento > 20 kt
SIGMETs :   Varie  Temporali  Ghiacco  Turbolenza  Onda orograficha  Ceneri Vulcaniche






- Altitudine del aeroporto : 376 ft


LHKE - Kecskemét

ULTIMO METAR :
  • 311715Z 26006KT 230V290 9999 SCT024 OVC050 13/09 Q1013 R12/01//95 NOSIG RMK BLU

METARs OBSOLETI :
  • 311645Z 27006KT 9999 FEW014 BKN022 OVC060 13/09 Q1013 R12/01//95 NOSIG RMK WHT
  • 311615Z 27008KT 240V300 9999 FEW014 BKN022 OVC060 12/09 Q1013 R12/01//95 NOSIG RMK WHT
  • 311545Z 27008KT 240V300 9999 FEW014 BKN025 OVC060 12/09 Q1013 R12/01//95 TEMPO -RA RMK WHT
  • 311515Z 28012KT 9999 FEW014 BKN022 OVC060 12/09 Q1013 R12/01//95 NOSIG RMK WHT
  • 311445Z 28012KT 9999 FEW013 BKN025 OVC050 12/09 Q1013 R12/01//95 NOSIG RMK WHT

TAF TAF LHKE
Valido dal 31 a 15 ore il 01 a 00 ore UTC


311415Z 3115/3124 29014KT 9999 BKN020 BKN080
BECMG 3116/3119 28006KT BKN015 BKN080
PROB40
TEMPO 3122/3124 33005KT 5000 -RA SHRA BR SCT005 BKN020 OVC040



MetMap, La meteo Aeronautica in un colpo d'occhio ! - Copyright ORBIFLY Dicembre 2007 - Disclaimer

ORBIFLY MET'MAP TEAM :

Programmazione e sviluppo : Alexandra Zaïnal
Concezione : Baudouin d'Aumeries
Aiuto per la programmazione : Marc-Olivier Méhu
Supporto tecnico e logistico : Manuel Goepfert
Aiuto per la traduzione : Arnaldo La Scala

Contatto : metmap@orbifly.com




FONTI E CREDITI :

   NOAA